sensor_id;sensor_type;location;lat;lon;timestamp;pressure;altitude;pressure_sealevel;temperature;humidity
72558;BME280;60583;50.094;8.748;2023-04-05T00:01:26;101279.44;;;4.41;59.70
72558;BME280;60583;50.094;8.748;2023-04-05T00:03:51;101248.03;;;4.19;60.01
72558;BME280;60583;50.094;8.748;2023-04-05T00:06:19;101251.91;;;4.05;59.43
72558;BME280;60583;50.094;8.748;2023-04-05T00:08:46;101282.06;;;4.22;57.65
72558;BME280;60583;50.094;8.748;2023-04-05T00:11:17;101277.31;;;4.16;58.40
72558;BME280;60583;50.094;8.748;2023-04-05T00:13:42;101246.19;;;4.00;57.98
72558;BME280;60583;50.094;8.748;2023-04-05T00:16:08;101225.63;;;3.94;59.63
72558;BME280;60583;50.094;8.748;2023-04-05T00:18:33;101280.69;;;4.18;60.43
72558;BME280;60583;50.094;8.748;2023-04-05T00:20:59;101274.56;;;4.17;60.65
72558;BME280;60583;50.094;8.748;2023-04-05T00:23:25;101266.06;;;4.04;61.46
72558;BME280;60583;50.094;8.748;2023-04-05T00:25:51;101270.22;;;4.07;61.17
72558;BME280;60583;50.094;8.748;2023-04-05T00:28:17;101270.66;;;4.12;62.19
72558;BME280;60583;50.094;8.748;2023-04-05T00:30:42;101272.19;;;4.14;62.33
72558;BME280;60583;50.094;8.748;2023-04-05T00:33:08;101257.88;;;4.07;61.92
72558;BME280;60583;50.094;8.748;2023-04-05T00:35:33;101261.31;;;3.98;62.57
72558;BME280;60583;50.094;8.748;2023-04-05T00:37:59;101271.34;;;4.14;62.19
72558;BME280;60583;50.094;8.748;2023-04-05T00:40:24;101266.88;;;4.05;62.13
72558;BME280;60583;50.094;8.748;2023-04-05T00:42:50;101274.91;;;4.03;61.09
72558;BME280;60583;50.094;8.748;2023-04-05T00:45:16;101244.16;;;3.73;61.70
72558;BME280;60583;50.094;8.748;2023-04-05T00:47:42;101254.72;;;3.83;62.72
72558;BME280;60583;50.094;8.748;2023-04-05T00:50:08;101265.03;;;3.96;62.47
72558;BME280;60583;50.094;8.748;2023-04-05T00:52:35;101246.53;;;3.76;62.02
72558;BME280;60583;50.094;8.748;2023-04-05T00:55:05;101245.94;;;3.73;62.89
72558;BME280;60583;50.094;8.748;2023-04-05T00:57:32;101255.81;;;3.80;63.35
72558;BME280;60583;50.094;8.748;2023-04-05T01:00:00;101248.31;;;3.76;63.65
72558;BME280;60583;50.094;8.748;2023-04-05T01:02:33;101249.84;;;3.78;63.26
72558;BME280;60583;50.094;8.748;2023-04-05T01:05:08;101255.78;;;3.71;62.99
72558;BME280;60583;50.094;8.748;2023-04-05T01:07:39;101215.81;;;3.36;63.71
72558;BME280;60583;50.094;8.748;2023-04-05T01:10:09;101242.06;;;3.37;64.10
72558;BME280;60583;50.094;8.748;2023-04-05T01:12:37;101243.47;;;3.41;64.27
72558;BME280;60583;50.094;8.748;2023-04-05T01:15:03;101219.53;;;3.23;64.15
72558;BME280;60583;50.094;8.748;2023-04-05T01:17:30;101235.91;;;3.27;64.12
72558;BME280;60583;50.094;8.748;2023-04-05T01:20:03;101243.09;;;3.25;64.15
72558;BME280;60583;50.094;8.748;2023-04-05T01:28:43;101228.31;;;3.13;63.63
72558;BME280;60583;50.094;8.748;2023-04-05T01:31:40;101243.56;;;3.09;63.40
72558;BME280;60583;50.094;8.748;2023-04-05T01:34:25;101243.13;;;3.04;64.29
72558;BME280;60583;50.094;8.748;2023-04-05T01:37:01;101214.34;;;2.92;64.24
72558;BME280;60583;50.094;8.748;2023-04-05T01:39:28;101211.19;;;2.98;64.11
72558;BME280;60583;50.094;8.748;2023-04-05T01:41:59;101232.97;;;3.00;64.53
72558;BME280;60583;50.094;8.748;2023-04-05T01:44:26;101234.69;;;2.90;65.37
72558;BME280;60583;50.094;8.748;2023-04-05T01:46:51;101232.78;;;2.92;65.33
72558;BME280;60583;50.094;8.748;2023-04-05T01:49:17;101195.22;;;2.69;65.15
72558;BME280;60583;50.094;8.748;2023-04-05T01:51:42;101220.75;;;2.78;65.47
72558;BME280;60583;50.094;8.748;2023-04-05T01:54:08;101223.16;;;2.81;65.80
72558;BME280;60583;50.094;8.748;2023-04-05T01:56:33;101233.53;;;2.83;66.32
72558;BME280;60583;50.094;8.748;2023-04-05T01:58:59;101222.31;;;2.81;66.54
72558;BME280;60583;50.094;8.748;2023-04-05T02:01:25;101221.47;;;2.80;66.36
72558;BME280;60583;50.094;8.748;2023-04-05T02:03:50;101227.25;;;2.95;66.10
72558;BME280;60583;50.094;8.748;2023-04-05T02:06:16;101217.75;;;2.83;66.55
72558;BME280;60583;50.094;8.748;2023-04-05T02:08:41;101223.66;;;2.75;66.64
72558;BME280;60583;50.094;8.748;2023-04-05T02:11:07;101224.00;;;2.82;66.80
72558;BME280;60583;50.094;8.748;2023-04-05T02:13:32;101217.53;;;2.75;66.49
72558;BME280;60583;50.094;8.748;2023-04-05T02:15:58;101223.66;;;2.75;67.06
72558;BME280;60583;50.094;8.748;2023-04-05T02:18:23;101223.59;;;2.66;67.78
72558;BME280;60583;50.094;8.748;2023-04-05T02:20:59;101230.53;;;2.67;67.43
72558;BME280;60583;50.094;8.748;2023-04-05T02:23:25;101216.00;;;2.51;67.77
72558;BME280;60583;50.094;8.748;2023-04-05T02:25:52;101220.03;;;2.55;67.56
72558;BME280;60583;50.094;8.748;2023-04-05T02:28:17;101229.28;;;2.50;68.08
72558;BME280;60583;50.094;8.748;2023-04-05T02:30:43;101222.16;;;2.41;68.23
72558;BME280;60583;50.094;8.748;2023-04-05T02:33:08;101217.59;;;2.43;68.12
72558;BME280;60583;50.094;8.748;2023-04-05T02:35:34;101231.50;;;2.54;67.91
72558;BME280;60583;50.094;8.748;2023-04-05T02:38:02;101222.22;;;2.50;68.18
72558;BME280;60583;50.094;8.748;2023-04-05T02:40:28;101216.69;;;2.53;68.36
72558;BME280;60583;50.094;8.748;2023-04-05T02:42:54;101220.44;;;2.51;68.48
72558;BME280;60583;50.094;8.748;2023-04-05T02:45:20;101196.56;;;2.32;68.45
72558;BME280;60583;50.094;8.748;2023-04-05T02:47:45;101215.56;;;2.35;68.74
72558;BME280;60583;50.094;8.748;2023-04-05T02:50:11;101203.53;;;2.22;68.93
72558;BME280;60583;50.094;8.748;2023-04-05T02:52:36;101214.53;;;2.27;69.05
72558;BME280;60583;50.094;8.748;2023-04-05T02:55:04;101219.53;;;2.30;68.53
72558;BME280;60583;50.094;8.748;2023-04-05T02:57:30;101219.06;;;2.25;68.20
72558;BME280;60583;50.094;8.748;2023-04-05T02:59:56;101215.91;;;2.10;68.52
72558;BME280;60583;50.094;8.748;2023-04-05T03:02:21;101224.72;;;2.09;68.92
72558;BME280;60583;50.094;8.748;2023-04-05T03:04:47;101210.66;;;1.99;68.97
72558;BME280;60583;50.094;8.748;2023-04-05T03:07:12;101213.66;;;2.06;69.13
72558;BME280;60583;50.094;8.748;2023-04-05T03:09:44;101216.84;;;2.09;69.25
72558;BME280;60583;50.094;8.748;2023-04-05T03:12:10;101197.63;;;2.09;68.81
72558;BME280;60583;50.094;8.748;2023-04-05T03:14:37;101208.47;;;2.15;68.75
72558;BME280;60583;50.094;8.748;2023-04-05T03:17:03;101198.94;;;2.03;69.26
72558;BME280;60583;50.094;8.748;2023-04-05T03:19:28;101200.59;;;2.04;68.52
72558;BME280;60583;50.094;8.748;2023-04-05T03:21:54;101203.03;;;1.96;69.37
72558;BME280;60583;50.094;8.748;2023-04-05T03:24:19;101189.44;;;1.91;69.43
72558;BME280;60583;50.094;8.748;2023-04-05T03:26:46;101185.97;;;1.79;69.74
72558;BME280;60583;50.094;8.748;2023-04-05T03:29:12;101189.19;;;1.83;68.93
72558;BME280;60583;50.094;8.748;2023-04-05T03:31:38;101181.78;;;1.77;69.51
72558;BME280;60583;50.094;8.748;2023-04-05T03:34:04;101196.09;;;1.84;69.40
72558;BME280;60583;50.094;8.748;2023-04-05T03:36:29;101199.56;;;1.84;69.51
72558;BME280;60583;50.094;8.748;2023-04-05T03:38:55;101194.09;;;1.87;69.38
72558;BME280;60583;50.094;8.748;2023-04-05T03:41:21;101189.91;;;1.85;70.14
72558;BME280;60583;50.094;8.748;2023-04-05T03:43:50;101191.81;;;1.83;69.71
72558;BME280;60583;50.094;8.748;2023-04-05T03:46:15;101179.91;;;1.68;70.11
72558;BME280;60583;50.094;8.748;2023-04-05T03:48:41;101201.50;;;1.82;70.32
72558;BME280;60583;50.094;8.748;2023-04-05T03:51:06;101201.88;;;1.78;71.10
72558;BME280;60583;50.094;8.748;2023-04-05T03:53:32;101196.16;;;1.73;71.10
72558;BME280;60583;50.094;8.748;2023-04-05T03:55:57;101189.56;;;1.78;70.69
72558;BME280;60583;50.094;8.748;2023-04-05T03:58:25;101190.88;;;1.73;71.28
72558;BME280;60583;50.094;8.748;2023-04-05T04:00:51;101194.84;;;1.78;70.22
72558;BME280;60583;50.094;8.748;2023-04-05T04:03:17;101171.41;;;1.64;70.80
72558;BME280;60583;50.094;8.748;2023-04-05T04:05:43;101190.28;;;1.69;71.08
72558;BME280;60583;50.094;8.748;2023-04-05T04:08:08;101180.63;;;1.70;71.12
72558;BME280;60583;50.094;8.748;2023-04-05T04:10:35;101191.38;;;1.67;70.86
72558;BME280;60583;50.094;8.748;2023-04-05T04:13:01;101175.84;;;1.64;71.16
72558;BME280;60583;50.094;8.748;2023-04-05T04:15:26;101140.25;;;1.49;71.25
72558;BME280;60583;50.094;8.748;2023-04-05T04:17:52;101167.72;;;1.67;71.19
72558;BME280;60583;50.094;8.748;2023-04-05T04:20:17;101188.13;;;1.74;70.88
72558;BME280;60583;50.094;8.748;2023-04-05T04:22:43;101175.34;;;1.70;71.28
72558;BME280;60583;50.094;8.748;2023-04-05T04:25:10;101190.88;;;1.73;71.91
72558;BME280;60583;50.094;8.748;2023-04-05T04:27:39;101183.16;;;1.60;72.08
72558;BME280;60583;50.094;8.748;2023-04-05T04:30:11;101195.34;;;1.50;71.87
72558;BME280;60583;50.094;8.748;2023-04-05T04:32:38;101186.28;;;1.43;71.70
72558;BME280;60583;50.094;8.748;2023-04-05T04:35:21;101187.09;;;1.55;72.01
72558;BME280;60583;50.094;8.748;2023-04-05T04:38:02;101192.06;;;1.69;71.61
72558;BME280;60583;50.094;8.748;2023-04-05T04:40:29;101194.69;;;1.69;71.60
72558;BME280;60583;50.094;8.748;2023-04-05T04:43:08;101181.34;;;1.61;71.96
72558;BME280;60583;50.094;8.748;2023-04-05T04:45:39;101193.53;;;1.62;71.52
72558;BME280;60583;50.094;8.748;2023-04-05T04:48:04;101186.84;;;1.58;71.97
72558;BME280;60583;50.094;8.748;2023-04-05T04:50:31;101186.84;;;1.58;71.55
72558;BME280;60583;50.094;8.748;2023-04-05T04:53:00;101197.34;;;1.58;71.40
72558;BME280;60583;50.094;8.748;2023-04-05T04:55:27;101175.63;;;1.45;71.90
72558;BME280;60583;50.094;8.748;2023-04-05T04:57:53;101183.25;;;1.59;72.28
72558;BME280;60583;50.094;8.748;2023-04-05T05:00:19;101178.72;;;1.50;72.30
72558;BME280;60583;50.094;8.748;2023-04-05T05:02:45;101192.94;;;1.58;72.19
72558;BME280;60583;50.094;8.748;2023-04-05T05:05:11;101183.75;;;1.53;71.78
72558;BME280;60583;50.094;8.748;2023-04-05T05:07:38;101186.25;;;1.54;72.00
72558;BME280;60583;50.094;8.748;2023-04-05T05:10:06;101188.03;;;1.65;71.42
72558;BME280;60583;50.094;8.748;2023-04-05T05:12:32;101168.47;;;1.47;72.18
72558;BME280;60583;50.094;8.748;2023-04-05T05:14:58;101178.25;;;1.45;71.93
72558;BME280;60583;50.094;8.748;2023-04-05T05:17:23;101182.06;;;1.52;72.00
72558;BME280;60583;50.094;8.748;2023-04-05T05:19:49;101191.59;;;1.64;72.22
72558;BME280;60583;50.094;8.748;2023-04-05T05:22:15;101186.63;;;1.61;71.57
72558;BME280;60583;50.094;8.748;2023-04-05T05:24:41;101206.91;;;1.70;71.50
72558;BME280;60583;50.094;8.748;2023-04-05T05:27:06;101201.88;;;1.78;71.23
72558;BME280;60583;50.094;8.748;2023-04-05T05:29:32;101159.13;;;1.54;71.99
72558;BME280;60583;50.094;8.748;2023-04-05T05:31:57;101189.38;;;1.37;70.28
72558;BME280;60583;50.094;8.748;2023-04-05T05:34:23;101202.00;;;1.54;69.65
72558;BME280;60583;50.094;8.748;2023-04-05T05:36:49;101189.13;;;1.40;70.92
72558;BME280;60583;50.094;8.748;2023-04-05T05:39:16;101200.69;;;1.60;70.75
72558;BME280;60583;50.094;8.748;2023-04-05T05:41:46;101200.69;;;1.60;70.65
72558;BME280;60583;50.094;8.748;2023-04-05T05:44:15;101198.06;;;1.71;70.47
72558;BME280;60583;50.094;8.748;2023-04-05T05:46:41;101205.44;;;1.88;70.98
72558;BME280;60583;50.094;8.748;2023-04-05T05:49:06;101205.88;;;2.04;71.30
72558;BME280;60583;50.094;8.748;2023-04-05T05:51:32;101197.34;;;2.12;70.85
72558;BME280;60583;50.094;8.748;2023-04-05T05:53:57;101209.19;;;2.17;71.05
72558;BME280;60583;50.094;8.748;2023-04-05T05:56:23;101213.09;;;2.34;70.37
72558;BME280;60583;50.094;8.748;2023-04-05T05:58:48;101215.56;;;2.35;69.21
72558;BME280;60583;50.094;8.748;2023-04-05T06:01:14;101166.22;;;2.28;67.73
72558;BME280;60583;50.094;8.748;2023-04-05T06:03:39;101218.28;;;2.77;66.76
72558;BME280;60583;50.094;8.748;2023-04-05T06:06:05;101191.59;;;2.91;65.65
72558;BME280;60583;50.094;8.748;2023-04-05T06:08:32;101200.84;;;3.06;64.92
72558;BME280;60583;50.094;8.748;2023-04-05T06:10:58;101217.38;;;3.38;64.27
72558;BME280;60583;50.094;8.748;2023-04-05T06:13:25;101220.38;;;3.64;62.90
72558;BME280;60583;50.094;8.748;2023-04-05T06:15:51;101208.88;;;3.65;62.77
72558;BME280;60583;50.094;8.748;2023-04-05T06:18:16;101212.94;;;3.78;63.00
72558;BME280;60583;50.094;8.748;2023-04-05T06:20:45;101213.00;;;3.98;61.52
72558;BME280;60583;50.094;8.748;2023-04-05T06:23:10;101204.66;;;3.93;61.32
72558;BME280;60583;50.094;8.748;2023-04-05T06:25:36;101205.25;;;4.15;61.34
72558;BME280;60583;50.094;8.748;2023-04-05T06:28:03;101198.03;;;4.27;61.18
72558;BME280;60583;50.094;8.748;2023-04-05T06:30:29;101214.53;;;4.10;58.62
72558;BME280;60583;50.094;8.748;2023-04-05T06:32:54;101202.97;;;3.92;60.55
72558;BME280;60583;50.094;8.748;2023-04-05T06:35:23;101212.19;;;4.26;60.14
72558;BME280;60583;50.094;8.748;2023-04-05T06:37:50;101199.56;;;4.29;59.42
72558;BME280;60583;50.094;8.748;2023-04-05T06:40:35;101208.88;;;4.43;57.83
72558;BME280;60583;50.094;8.748;2023-04-05T06:43:01;101206.88;;;3.97;60.60
72558;BME280;60583;50.094;8.748;2023-04-05T06:45:26;101204.41;;;4.05;58.40
72558;BME280;60583;50.094;8.748;2023-04-05T06:47:52;101197.88;;;4.00;58.78
72558;BME280;60583;50.094;8.748;2023-04-05T06:50:17;101186.50;;;4.37;59.08
72558;BME280;60583;50.094;8.748;2023-04-05T06:52:43;101194.78;;;4.90;57.22
72558;BME280;60583;50.094;8.748;2023-04-05T06:55:08;101188.28;;;5.22;56.38
72558;BME280;60583;50.094;8.748;2023-04-05T06:57:34;101200.75;;;5.48;54.77
72558;BME280;60583;50.094;8.748;2023-04-05T07:00:03;101194.41;;;5.59;54.19
72558;BME280;60583;50.094;8.748;2023-04-05T07:02:36;101201.97;;;5.81;53.38
72558;BME280;60583;50.094;8.748;2023-04-05T07:05:02;101190.63;;;5.61;52.83
72558;BME280;60583;50.094;8.748;2023-04-05T07:07:32;101205.31;;;5.56;51.68
72558;BME280;60583;50.094;8.748;2023-04-05T07:09:58;101198.53;;;5.71;52.73
72558;BME280;60583;50.094;8.748;2023-04-05T07:12:24;101192.13;;;5.37;52.99
72558;BME280;60583;50.094;8.748;2023-04-05T07:14:51;101193.94;;;4.99;53.54
72558;BME280;60583;50.094;8.748;2023-04-05T07:17:17;101162.59;;;5.51;53.49
72558;BME280;60583;50.094;8.748;2023-04-05T07:19:42;101189.47;;;5.73;53.70
72558;BME280;60583;50.094;8.748;2023-04-05T07:22:08;101189.91;;;5.69;51.78
72558;BME280;60583;50.094;8.748;2023-04-05T07:24:34;101189.81;;;5.61;54.03
72558;BME280;60583;50.094;8.748;2023-04-05T07:26:59;101169.09;;;5.84;52.72
72558;BME280;60583;50.094;8.748;2023-04-05T07:29:26;101179.69;;;5.84;52.16
72558;BME280;60583;50.094;8.748;2023-04-05T07:31:51;101198.69;;;5.97;51.52
72558;BME280;60583;50.094;8.748;2023-04-05T07:34:17;101167.94;;;5.68;50.68
72558;BME280;60583;50.094;8.748;2023-04-05T07:36:43;101187.75;;;5.82;52.69
72558;BME280;60583;50.094;8.748;2023-04-05T07:39:09;101160.72;;;5.88;52.13
72558;BME280;60583;50.094;8.748;2023-04-05T07:41:34;101185.09;;;5.82;52.08
72558;BME280;60583;50.094;8.748;2023-04-05T07:44:01;101186.56;;;6.39;51.75
72558;BME280;60583;50.094;8.748;2023-04-05T07:46:26;101180.81;;;6.87;50.89
72558;BME280;60583;50.094;8.748;2023-04-05T07:48:53;101189.09;;;6.84;50.71
72558;BME280;60583;50.094;8.748;2023-04-05T07:51:18;101182.28;;;7.07;51.29
72558;BME280;60583;50.094;8.748;2023-04-05T07:53:44;101181.97;;;6.84;49.87
72558;BME280;60583;50.094;8.748;2023-04-05T07:56:10;101181.06;;;7.27;47.65
72558;BME280;60583;50.094;8.748;2023-04-05T07:58:37;101192.38;;;7.71;47.97
72558;BME280;60583;50.094;8.748;2023-04-05T08:01:06;101175.66;;;7.79;48.59
72558;BME280;60583;50.094;8.748;2023-04-05T08:03:33;101173.97;;;7.69;47.37
72558;BME280;60583;50.094;8.748;2023-04-05T08:06:14;101175.06;;;8.09;46.59
72558;BME280;60583;50.094;8.748;2023-04-05T08:08:42;101180.63;;;8.48;45.43
72558;BME280;60583;50.094;8.748;2023-04-05T08:11:08;101167.66;;;8.37;45.27
72558;BME280;60583;50.094;8.748;2023-04-05T08:13:34;101189.09;;;8.27;47.09
72558;BME280;60583;50.094;8.748;2023-04-05T08:16:01;101168.44;;;8.21;46.51
72558;BME280;60583;50.094;8.748;2023-04-05T08:18:26;101178.16;;;8.70;45.21
72558;BME280;60583;50.094;8.748;2023-04-05T08:20:53;101171.81;;;8.87;44.54
72558;BME280;60583;50.094;8.748;2023-04-05T08:23:19;101186.22;;;8.12;43.12
72558;BME280;60583;50.094;8.748;2023-04-05T08:25:45;101171.50;;;8.42;45.17
72558;BME280;60583;50.094;8.748;2023-04-05T08:28:10;101138.09;;;8.64;43.29
72558;BME280;60583;50.094;8.748;2023-04-05T08:30:36;101163.97;;;9.02;42.80
72558;BME280;60583;50.094;8.748;2023-04-05T08:33:03;101142.53;;;9.04;42.24
72558;BME280;60583;50.094;8.748;2023-04-05T08:35:29;101158.75;;;9.25;41.85
72558;BME280;60583;50.094;8.748;2023-04-05T08:37:55;101154.94;;;9.19;40.20
72558;BME280;60583;50.094;8.748;2023-04-05T08:40:20;101166.75;;;9.17;40.63
72558;BME280;60583;50.094;8.748;2023-04-05T08:43:02;101145.72;;;8.91;41.26
72558;BME280;60583;50.094;8.748;2023-04-05T08:45:30;101148.63;;;9.28;41.08
72558;BME280;60583;50.094;8.748;2023-04-05T08:47:58;101162.84;;;8.64;40.34
72558;BME280;60583;50.094;8.748;2023-04-05T08:50:23;101154.03;;;9.51;41.69
72558;BME280;60583;50.094;8.748;2023-04-05T08:52:49;101166.06;;;9.70;40.95
72558;BME280;60583;50.094;8.748;2023-04-05T08:55:15;101165.34;;;9.84;39.77
72558;BME280;60583;50.094;8.748;2023-04-05T08:57:48;101156.75;;;10.04;39.97
72558;BME280;60583;50.094;8.748;2023-04-05T09:00:15;101154.66;;;10.22;38.34
72558;BME280;60583;50.094;8.748;2023-04-05T09:02:43;101155.19;;;10.10;37.04
72558;BME280;60583;50.094;8.748;2023-04-05T09:05:11;101156.56;;;10.14;39.48
72558;BME280;60583;50.094;8.748;2023-04-05T09:07:38;101161.16;;;10.43;39.43
72558;BME280;60583;50.094;8.748;2023-04-05T09:10:05;101165.16;;;10.47;38.40
72558;BME280;60583;50.094;8.748;2023-04-05T09:12:31;101158.09;;;10.54;36.48
72558;BME280;60583;50.094;8.748;2023-04-05T09:14:59;101147.47;;;10.83;35.67
72558;BME280;60583;50.094;8.748;2023-04-05T09:17:26;101140.53;;;10.59;39.29
72558;BME280;60583;50.094;8.748;2023-04-05T09:19:52;101147.06;;;10.57;38.50
72558;BME280;60583;50.094;8.748;2023-04-05T09:22:17;101146.75;;;10.74;36.62
72558;BME280;60583;50.094;8.748;2023-04-05T09:24:44;101143.53;;;10.94;35.39
72558;BME280;60583;50.094;8.748;2023-04-05T09:27:18;101145.38;;;11.08;36.44
72558;BME280;60583;50.094;8.748;2023-04-05T09:29:46;101136.28;;;11.31;36.97
72558;BME280;60583;50.094;8.748;2023-04-05T09:32:12;101135.72;;;11.36;35.08
72558;BME280;60583;50.094;8.748;2023-04-05T09:34:39;101125.25;;;11.34;36.56
72558;BME280;60583;50.094;8.748;2023-04-05T09:39:37;101145.22;;;10.95;35.04
72558;BME280;60583;50.094;8.748;2023-04-05T09:42:14;101119.25;;;11.03;34.80
72558;BME280;60583;50.094;8.748;2023-04-05T09:44:59;101136.72;;;11.79;34.48
72558;BME280;60583;50.094;8.748;2023-04-05T09:47:28;101119.81;;;12.14;31.57
72558;BME280;60583;50.094;8.748;2023-04-05T09:50:16;101146.94;;;11.90;31.64
72558;BME280;60583;50.094;8.748;2023-04-05T09:52:42;101144.34;;;11.82;31.71
72558;BME280;60583;50.094;8.748;2023-04-05T09:55:09;101138.97;;;12.60;32.02
72558;BME280;60583;50.094;8.748;2023-04-05T09:57:39;101134.38;;;12.54;30.97
72558;BME280;60583;50.094;8.748;2023-04-05T10:00:16;101132.38;;;13.46;31.81
72558;BME280;60583;50.094;8.748;2023-04-05T10:02:42;101133.53;;;13.77;29.04
72558;BME280;60583;50.094;8.748;2023-04-05T10:05:11;101127.75;;;14.67;29.92
72558;BME280;60583;50.094;8.748;2023-04-05T10:07:43;101125.69;;;15.66;28.54
72558;BME280;60583;50.094;8.748;2023-04-05T10:10:12;101123.72;;;16.80;27.18
72558;BME280;60583;50.094;8.748;2023-04-05T10:12:40;101120.94;;;17.83;25.91
72558;BME280;60583;50.094;8.748;2023-04-05T10:15:07;101094.81;;;18.37;24.37
72558;BME280;60583;50.094;8.748;2023-04-05T10:20:13;101106.28;;;18.97;23.25
72558;BME280;60583;50.094;8.748;2023-04-05T10:25:26;101102.66;;;19.94;22.21
72558;BME280;60583;50.094;8.748;2023-04-05T10:30:50;101093.59;;;21.82;19.90
72558;BME280;60583;50.094;8.748;2023-04-05T10:33:20;101109.19;;;22.18;19.10
72558;BME280;60583;50.094;8.748;2023-04-05T10:41:12;101092.63;;;22.51;19.03
72558;BME280;60583;50.094;8.748;2023-04-05T10:43:41;101084.28;;;21.78;17.99
72558;BME280;60583;50.094;8.748;2023-04-05T10:46:09;101090.94;;;21.65;17.95
72558;BME280;60583;50.094;8.748;2023-04-05T10:48:56;101098.00;;;22.41;18.63
72558;BME280;60583;50.094;8.748;2023-04-05T10:51:23;101077.38;;;21.05;19.60
72558;BME280;60583;50.094;8.748;2023-04-05T10:53:50;101090.63;;;23.10;18.50
72558;BME280;60583;50.094;8.748;2023-04-05T10:56:16;101084.84;;;23.02;18.22
72558;BME280;60583;50.094;8.748;2023-04-05T10:58:43;101080.25;;;23.59;18.49
72558;BME280;60583;50.094;8.748;2023-04-05T11:01:09;101076.53;;;23.95;16.42
72558;BME280;60583;50.094;8.748;2023-04-05T11:03:44;101080.69;;;22.52;17.60
72558;BME280;60583;50.094;8.748;2023-04-05T11:06:23;101074.16;;;24.54;16.27
72558;BME280;60583;50.094;8.748;2023-04-05T11:08:53;101060.72;;;23.97;16.20
72558;BME280;60583;50.094;8.748;2023-04-05T11:11:21;101051.09;;;21.71;17.22
72558;BME280;60583;50.094;8.748;2023-04-05T11:13:51;101062.94;;;23.23;16.86
72558;BME280;60583;50.094;8.748;2023-04-05T11:16:20;101053.53;;;23.41;16.60
72558;BME280;60583;50.094;8.748;2023-04-05T11:18:47;101050.13;;;24.82;16.09
72558;BME280;60583;50.094;8.748;2023-04-05T11:21:28;101050.13;;;24.66;15.77
72558;BME280;60583;50.094;8.748;2023-04-05T11:24:07;101043.72;;;23.45;16.19
72558;BME280;60583;50.094;8.748;2023-04-05T11:29:06;101034.97;;;25.29;16.27
72558;BME280;60583;50.094;8.748;2023-04-05T11:31:31;101036.28;;;25.47;16.59
72558;BME280;60583;50.094;8.748;2023-04-05T11:34:06;101044.34;;;25.67;13.98
72558;BME280;60583;50.094;8.748;2023-04-05T11:41:45;101035.84;;;26.46;15.79
72558;BME280;60583;50.094;8.748;2023-04-05T11:44:14;101036.16;;;24.98;14.53
72558;BME280;60583;50.094;8.748;2023-04-05T11:46:45;101023.94;;;24.65;14.77
72558;BME280;60583;50.094;8.748;2023-04-05T11:49:11;101027.03;;;25.28;14.94
72558;BME280;60583;50.094;8.748;2023-04-05T11:51:39;101025.09;;;25.87;15.66
72558;BME280;60583;50.094;8.748;2023-04-05T11:54:07;101001.78;;;24.97;15.18
72558;BME280;60583;50.094;8.748;2023-04-05T11:56:33;101007.06;;;24.33;14.55
72558;BME280;60583;50.094;8.748;2023-04-05T11:58:59;101016.59;;;24.56;14.48
72558;BME280;60583;50.094;8.748;2023-04-05T12:01:24;101005.28;;;26.00;14.08
72558;BME280;60583;50.094;8.748;2023-04-05T12:03:53;101020.41;;;24.45;15.11
72558;BME280;60583;50.094;8.748;2023-04-05T12:06:24;101014.94;;;24.60;14.77
72558;BME280;60583;50.094;8.748;2023-04-05T12:08:50;100999.16;;;24.42;14.85
72558;BME280;60583;50.094;8.748;2023-04-05T12:11:28;101004.00;;;24.80;13.96
72558;BME280;60583;50.094;8.748;2023-04-05T12:13:57;101003.09;;;22.03;16.16
72558;BME280;60583;50.094;8.748;2023-04-05T12:16:23;100992.72;;;23.30;16.34
72558;BME280;60583;50.094;8.748;2023-04-05T12:18:55;100990.97;;;23.96;16.23
72558;BME280;60583;50.094;8.748;2023-04-05T12:21:21;100991.69;;;24.93;14.41
72558;BME280;60583;50.094;8.748;2023-04-05T12:23:48;100999.91;;;24.78;14.64
72558;BME280;60583;50.094;8.748;2023-04-05T12:26:14;100985.91;;;23.28;14.78
72558;BME280;60583;50.094;8.748;2023-04-05T12:28:53;100991.00;;;22.57;15.83
72558;BME280;60583;50.094;8.748;2023-04-05T12:31:44;101000.94;;;22.05;15.63
72558;BME280;60583;50.094;8.748;2023-04-05T12:34:12;100972.31;;;21.92;15.72
72558;BME280;60583;50.094;8.748;2023-04-05T12:36:38;100982.53;;;22.54;15.70
72558;BME280;60583;50.094;8.748;2023-04-05T12:39:08;100965.09;;;22.92;15.52
72558;BME280;60583;50.094;8.748;2023-04-05T12:41:35;100981.97;;;22.10;16.03
72558;BME280;60583;50.094;8.748;2023-04-05T12:44:10;100948.13;;;22.69;15.89
72558;BME280;60583;50.094;8.748;2023-04-05T12:46:47;100964.66;;;23.25;15.59
72558;BME280;60583;50.094;8.748;2023-04-05T12:49:17;100969.00;;;23.16;15.71
72558;BME280;60583;50.094;8.748;2023-04-05T12:51:43;100961.97;;;23.35;16.19
72558;BME280;60583;50.094;8.748;2023-04-05T12:54:20;100949.31;;;22.94;15.44
72558;BME280;60583;50.094;8.748;2023-04-05T12:56:48;100947.47;;;22.15;16.46
72558;BME280;60583;50.094;8.748;2023-04-05T12:59:14;100940.59;;;20.19;18.51
72558;BME280;60583;50.094;8.748;2023-04-05T13:01:40;100918.19;;;18.73;19.00
72558;BME280;60583;50.094;8.748;2023-04-05T13:04:05;100954.19;;;17.74;19.72
72558;BME280;60583;50.094;8.748;2023-04-05T13:06:31;100935.56;;;17.13;20.29
72558;BME280;60583;50.094;8.748;2023-04-05T13:08:56;100947.31;;;15.47;21.09
72558;BME280;60583;50.094;8.748;2023-04-05T13:11:22;100940.19;;;15.21;21.61
72558;BME280;60583;50.094;8.748;2023-04-05T13:13:48;100942.88;;;15.21;21.67
72558;BME280;60583;50.094;8.748;2023-04-05T13:16:14;100937.28;;;14.85;22.80
72558;BME280;60583;50.094;8.748;2023-04-05T13:18:39;100939.16;;;14.78;22.81
72558;BME280;60583;50.094;8.748;2023-04-05T13:21:05;100932.06;;;14.20;22.75
72558;BME280;60583;50.094;8.748;2023-04-05T13:23:38;100934.34;;;14.10;22.61
72558;BME280;60583;50.094;8.748;2023-04-05T13:26:05;100940.53;;;13.90;22.14
72558;BME280;60583;50.094;8.748;2023-04-05T13:28:31;100941.16;;;13.79;23.21
72558;BME280;60583;50.094;8.748;2023-04-05T13:30:57;100919.91;;;13.71;23.71